sensor_id;sensor_type;location;lat;lon;timestamp;temperature;humidity
42683;DHT22;28293;50.930;3.464;2024-01-16T00:01:07;0.30;88.80
42683;DHT22;28293;50.930;3.464;2024-01-16T00:03:34;0.20;88.80
42683;DHT22;28293;50.930;3.464;2024-01-16T00:06:01;0.20;89.10
42683;DHT22;28293;50.930;3.464;2024-01-16T00:08:26;0.20;88.90
42683;DHT22;28293;50.930;3.464;2024-01-16T00:10:52;0.20;89.00
42683;DHT22;28293;50.930;3.464;2024-01-16T00:13:18;0.20;89.00
42683;DHT22;28293;50.930;3.464;2024-01-16T00:15:43;0.10;89.00
42683;DHT22;28293;50.930;3.464;2024-01-16T00:18:09;0.20;89.10
42683;DHT22;28293;50.930;3.464;2024-01-16T00:20:35;0.10;89.20
42683;DHT22;28293;50.930;3.464;2024-01-16T00:23:01;0.10;89.10
42683;DHT22;28293;50.930;3.464;2024-01-16T00:25:26;0.10;89.20
42683;DHT22;28293;50.930;3.464;2024-01-16T00:27:52;0.10;89.20
42683;DHT22;28293;50.930;3.464;2024-01-16T00:30:18;0.10;89.20
42683;DHT22;28293;50.930;3.464;2024-01-16T00:32:44;0.10;89.30
42683;DHT22;28293;50.930;3.464;2024-01-16T00:35:10;0.10;89.30
42683;DHT22;28293;50.930;3.464;2024-01-16T00:37:38;0.10;89.20
42683;DHT22;28293;50.930;3.464;2024-01-16T00:40:05;0.10;89.10
42683;DHT22;28293;50.930;3.464;2024-01-16T00:42:31;0.00;89.10
42683;DHT22;28293;50.930;3.464;2024-01-16T00:44:57;0.00;89.20
42683;DHT22;28293;50.930;3.464;2024-01-16T00:47:23;0.00;89.30
42683;DHT22;28293;50.930;3.464;2024-01-16T00:49:49;0.00;89.30
42683;DHT22;28293;50.930;3.464;2024-01-16T00:52:15;0.00;89.30
42683;DHT22;28293;50.930;3.464;2024-01-16T00:54:42;0.00;89.40
42683;DHT22;28293;50.930;3.464;2024-01-16T00:57:07;0.00;89.30
42683;DHT22;28293;50.930;3.464;2024-01-16T00:59:33;0.00;89.30
42683;DHT22;28293;50.930;3.464;2024-01-16T01:01:59;0.00;89.30
42683;DHT22;28293;50.930;3.464;2024-01-16T01:04:24;0.00;89.30
42683;DHT22;28293;50.930;3.464;2024-01-16T01:06:50;0.00;89.10
42683;DHT22;28293;50.930;3.464;2024-01-16T01:09:16;0.00;89.10
42683;DHT22;28293;50.930;3.464;2024-01-16T01:11:42;0.00;89.20
42683;DHT22;28293;50.930;3.464;2024-01-16T01:14:08;0.10;89.00
42683;DHT22;28293;50.930;3.464;2024-01-16T01:16:34;0.10;88.90
42683;DHT22;28293;50.930;3.464;2024-01-16T01:18:59;0.10;88.80
42683;DHT22;28293;50.930;3.464;2024-01-16T01:21:25;0.10;88.70
42683;DHT22;28293;50.930;3.464;2024-01-16T01:23:51;0.10;88.70
42683;DHT22;28293;50.930;3.464;2024-01-16T01:26:16;0.10;88.70
42683;DHT22;28293;50.930;3.464;2024-01-16T01:28:44;0.10;88.60
42683;DHT22;28293;50.930;3.464;2024-01-16T01:31:13;0.10;88.60
42683;DHT22;28293;50.930;3.464;2024-01-16T01:33:41;0.10;88.60
42683;DHT22;28293;50.930;3.464;2024-01-16T01:36:08;0.10;88.60
42683;DHT22;28293;50.930;3.464;2024-01-16T01:38:33;0.10;88.50
42683;DHT22;28293;50.930;3.464;2024-01-16T01:40:59;0.10;88.60
42683;DHT22;28293;50.930;3.464;2024-01-16T01:43:25;0.10;88.50
42683;DHT22;28293;50.930;3.464;2024-01-16T01:46:09;0.10;88.50
42683;DHT22;28293;50.930;3.464;2024-01-16T01:48:43;0.10;88.40
42683;DHT22;28293;50.930;3.464;2024-01-16T01:51:12;0.10;88.50
42683;DHT22;28293;50.930;3.464;2024-01-16T01:53:39;0.00;88.50
42683;DHT22;28293;50.930;3.464;2024-01-16T01:56:10;0.00;88.60
42683;DHT22;28293;50.930;3.464;2024-01-16T01:58:36;0.00;88.60
42683;DHT22;28293;50.930;3.464;2024-01-16T02:01:06;0.00;88.60
42683;DHT22;28293;50.930;3.464;2024-01-16T02:03:41;0.00;88.60
42683;DHT22;28293;50.930;3.464;2024-01-16T02:06:07;0.00;88.50
42683;DHT22;28293;50.930;3.464;2024-01-16T02:08:33;0.00;88.40
42683;DHT22;28293;50.930;3.464;2024-01-16T02:10:59;0.00;88.50
42683;DHT22;28293;50.930;3.464;2024-01-16T02:13:24;0.00;88.50
42683;DHT22;28293;50.930;3.464;2024-01-16T02:15:50;0.00;88.50
42683;DHT22;28293;50.930;3.464;2024-01-16T02:18:17;0.00;88.50
42683;DHT22;28293;50.930;3.464;2024-01-16T02:20:46;-3276.70;88.60
42683;DHT22;28293;50.930;3.464;2024-01-16T02:23:14;-3276.70;88.60
42683;DHT22;28293;50.930;3.464;2024-01-16T02:25:41;-3276.70;88.70
42683;DHT22;28293;50.930;3.464;2024-01-16T02:28:07;-3276.70;88.70
42683;DHT22;28293;50.930;3.464;2024-01-16T02:30:33;-3276.70;88.70
42683;DHT22;28293;50.930;3.464;2024-01-16T02:32:59;-3276.70;88.60
42683;DHT22;28293;50.930;3.464;2024-01-16T02:35:24;-3276.70;88.50
42683;DHT22;28293;50.930;3.464;2024-01-16T02:37:50;-3276.70;88.40
42683;DHT22;28293;50.930;3.464;2024-01-16T02:40:16;-3276.70;88.30
42683;DHT22;28293;50.930;3.464;2024-01-16T02:42:42;-3276.70;88.40
42683;DHT22;28293;50.930;3.464;2024-01-16T02:45:07;-3276.70;88.30
42683;DHT22;28293;50.930;3.464;2024-01-16T02:47:34;-3276.70;88.30
42683;DHT22;28293;50.930;3.464;2024-01-16T02:49:59;-3276.70;88.30
42683;DHT22;28293;50.930;3.464;2024-01-16T02:52:25;-3276.70;88.20
42683;DHT22;28293;50.930;3.464;2024-01-16T02:54:51;-3276.70;88.30
42683;DHT22;28293;50.930;3.464;2024-01-16T02:57:17;-3276.70;88.10
42683;DHT22;28293;50.930;3.464;2024-01-16T02:59:45;-3276.70;87.90
42683;DHT22;28293;50.930;3.464;2024-01-16T03:02:11;-3276.70;88.00
42683;DHT22;28293;50.930;3.464;2024-01-16T03:04:37;-3276.70;87.90
42683;DHT22;28293;50.930;3.464;2024-01-16T03:07:03;-3276.60;87.70
42683;DHT22;28293;50.930;3.464;2024-01-16T03:09:29;-3276.70;87.90
42683;DHT22;28293;50.930;3.464;2024-01-16T03:11:55;-3276.70;87.80
42683;DHT22;28293;50.930;3.464;2024-01-16T03:14:21;-3276.70;87.70
42683;DHT22;28293;50.930;3.464;2024-01-16T03:16:46;-3276.70;87.60
42683;DHT22;28293;50.930;3.464;2024-01-16T03:19:12;-3276.70;87.60
42683;DHT22;28293;50.930;3.464;2024-01-16T03:21:38;-3276.70;87.50
42683;DHT22;28293;50.930;3.464;2024-01-16T03:24:05;-3276.70;87.50
42683;DHT22;28293;50.930;3.464;2024-01-16T03:26:31;-3276.60;87.40
42683;DHT22;28293;50.930;3.464;2024-01-16T03:28:57;-3276.70;87.30
42683;DHT22;28293;50.930;3.464;2024-01-16T03:31:23;-3276.70;87.20
42683;DHT22;28293;50.930;3.464;2024-01-16T03:33:49;-3276.70;87.20
42683;DHT22;28293;50.930;3.464;2024-01-16T03:36:15;-3276.70;87.10
42683;DHT22;28293;50.930;3.464;2024-01-16T03:38:42;-3276.70;87.10
42683;DHT22;28293;50.930;3.464;2024-01-16T03:41:10;-3276.70;87.10
42683;DHT22;28293;50.930;3.464;2024-01-16T03:43:36;-3276.70;87.10
42683;DHT22;28293;50.930;3.464;2024-01-16T03:46:02;-3276.60;87.00
42683;DHT22;28293;50.930;3.464;2024-01-16T03:48:28;-3276.60;87.00
42683;DHT22;28293;50.930;3.464;2024-01-16T03:50:55;-3276.60;86.80
42683;DHT22;28293;50.930;3.464;2024-01-16T03:53:21;-3276.60;86.80
42683;DHT22;28293;50.930;3.464;2024-01-16T03:55:47;-3276.70;86.70
42683;DHT22;28293;50.930;3.464;2024-01-16T03:58:13;-3276.60;86.70
42683;DHT22;28293;50.930;3.464;2024-01-16T04:00:38;-3276.70;86.60
42683;DHT22;28293;50.930;3.464;2024-01-16T04:03:04;-3276.60;86.40
42683;DHT22;28293;50.930;3.464;2024-01-16T04:05:31;-3276.60;86.50
42683;DHT22;28293;50.930;3.464;2024-01-16T04:07:57;-3276.60;86.50
42683;DHT22;28293;50.930;3.464;2024-01-16T04:10:22;-3276.60;86.40
42683;DHT22;28293;50.930;3.464;2024-01-16T04:12:48;-3276.60;86.40
42683;DHT22;28293;50.930;3.464;2024-01-16T04:15:13;-3276.60;86.30
42683;DHT22;28293;50.930;3.464;2024-01-16T04:17:39;-3276.50;86.30
42683;DHT22;28293;50.930;3.464;2024-01-16T04:20:05;-3276.50;86.30
42683;DHT22;28293;50.930;3.464;2024-01-16T04:22:32;-3276.50;86.40
42683;DHT22;28293;50.930;3.464;2024-01-16T04:24:58;-3276.40;86.40
42683;DHT22;28293;50.930;3.464;2024-01-16T04:27:24;-3276.40;86.50
42683;DHT22;28293;50.930;3.464;2024-01-16T04:29:51;-3276.40;86.50
42683;DHT22;28293;50.930;3.464;2024-01-16T04:32:16;-3276.40;86.50
42683;DHT22;28293;50.930;3.464;2024-01-16T04:34:42;-3276.40;86.50
42683;DHT22;28293;50.930;3.464;2024-01-16T04:37:08;-3276.40;86.40
42683;DHT22;28293;50.930;3.464;2024-01-16T04:39:33;-3276.40;86.20
42683;DHT22;28293;50.930;3.464;2024-01-16T04:41:59;-3276.40;86.00
42683;DHT22;28293;50.930;3.464;2024-01-16T04:44:24;-3276.40;86.10
42683;DHT22;28293;50.930;3.464;2024-01-16T04:46:50;-3276.40;86.20
42683;DHT22;28293;50.930;3.464;2024-01-16T04:49:15;-3276.40;86.20
42683;DHT22;28293;50.930;3.464;2024-01-16T04:51:41;-3276.30;86.20
42683;DHT22;28293;50.930;3.464;2024-01-16T04:54:07;-3276.40;86.30
42683;DHT22;28293;50.930;3.464;2024-01-16T04:56:33;-3276.30;86.20
42683;DHT22;28293;50.930;3.464;2024-01-16T04:58:58;-3276.30;86.20
42683;DHT22;28293;50.930;3.464;2024-01-16T05:01:24;-3276.30;86.20
42683;DHT22;28293;50.930;3.464;2024-01-16T05:03:50;-3276.30;86.10
42683;DHT22;28293;50.930;3.464;2024-01-16T05:06:16;-3276.30;86.10
42683;DHT22;28293;50.930;3.464;2024-01-16T05:08:42;-3276.30;86.20
42683;DHT22;28293;50.930;3.464;2024-01-16T05:11:09;-3276.30;86.30
42683;DHT22;28293;50.930;3.464;2024-01-16T05:13:34;-3276.30;86.30
42683;DHT22;28293;50.930;3.464;2024-01-16T05:16:00;-3276.30;86.40
42683;DHT22;28293;50.930;3.464;2024-01-16T05:18:26;-3276.30;86.40
42683;DHT22;28293;50.930;3.464;2024-01-16T05:20:51;-3276.30;86.30
42683;DHT22;28293;50.930;3.464;2024-01-16T05:23:17;-3276.30;86.40
42683;DHT22;28293;50.930;3.464;2024-01-16T05:25:43;-3276.40;86.40
42683;DHT22;28293;50.930;3.464;2024-01-16T05:28:09;-3276.40;86.40
42683;DHT22;28293;50.930;3.464;2024-01-16T05:30:35;-3276.40;86.30
42683;DHT22;28293;50.930;3.464;2024-01-16T05:33:01;-3276.40;86.10
42683;DHT22;28293;50.930;3.464;2024-01-16T05:35:27;-3276.40;86.10
42683;DHT22;28293;50.930;3.464;2024-01-16T05:37:53;-3276.40;86.10
42683;DHT22;28293;50.930;3.464;2024-01-16T05:40:19;-3276.50;86.10
42683;DHT22;28293;50.930;3.464;2024-01-16T05:42:45;-3276.50;85.90
42683;DHT22;28293;50.930;3.464;2024-01-16T05:45:11;-3276.40;86.00
42683;DHT22;28293;50.930;3.464;2024-01-16T05:47:36;-3276.50;86.00
42683;DHT22;28293;50.930;3.464;2024-01-16T05:50:02;-3276.50;86.10
42683;DHT22;28293;50.930;3.464;2024-01-16T05:52:28;-3276.50;86.00
42683;DHT22;28293;50.930;3.464;2024-01-16T05:54:54;-3276.50;86.10
42683;DHT22;28293;50.930;3.464;2024-01-16T05:57:23;-3276.60;86.00
42683;DHT22;28293;50.930;3.464;2024-01-16T05:59:48;-3276.50;85.90
42683;DHT22;28293;50.930;3.464;2024-01-16T06:02:14;-3276.60;85.90
42683;DHT22;28293;50.930;3.464;2024-01-16T06:04:40;-3276.60;85.70
42683;DHT22;28293;50.930;3.464;2024-01-16T06:07:06;-3276.60;85.60
42683;DHT22;28293;50.930;3.464;2024-01-16T06:09:40;-3276.70;85.50
42683;DHT22;28293;50.930;3.464;2024-01-16T06:12:06;-3276.70;85.40
42683;DHT22;28293;50.930;3.464;2024-01-16T06:14:33;-3276.70;85.30
42683;DHT22;28293;50.930;3.464;2024-01-16T06:16:58;-3276.70;85.30
42683;DHT22;28293;50.930;3.464;2024-01-16T06:19:24;-3276.70;85.20
42683;DHT22;28293;50.930;3.464;2024-01-16T06:21:50;-3276.70;85.30
42683;DHT22;28293;50.930;3.464;2024-01-16T06:24:15;-3276.70;85.20
42683;DHT22;28293;50.930;3.464;2024-01-16T06:26:41;-3276.70;85.10
42683;DHT22;28293;50.930;3.464;2024-01-16T06:29:07;-3276.60;85.00
42683;DHT22;28293;50.930;3.464;2024-01-16T06:31:33;-3276.60;85.00
42683;DHT22;28293;50.930;3.464;2024-01-16T06:33:59;-3276.60;84.90
42683;DHT22;28293;50.930;3.464;2024-01-16T06:36:24;-3276.50;85.00
42683;DHT22;28293;50.930;3.464;2024-01-16T06:38:50;-3276.50;85.10
42683;DHT22;28293;50.930;3.464;2024-01-16T06:41:16;-3276.50;85.10
42683;DHT22;28293;50.930;3.464;2024-01-16T06:43:41;-3276.50;85.00
42683;DHT22;28293;50.930;3.464;2024-01-16T06:46:07;-3276.50;84.90
42683;DHT22;28293;50.930;3.464;2024-01-16T06:48:35;-3276.50;84.90
42683;DHT22;28293;50.930;3.464;2024-01-16T06:51:01;-3276.50;85.00
42683;DHT22;28293;50.930;3.464;2024-01-16T06:53:27;-3276.40;84.90
42683;DHT22;28293;50.930;3.464;2024-01-16T06:55:52;-3276.40;85.10
42683;DHT22;28293;50.930;3.464;2024-01-16T06:58:18;-3276.40;85.30
42683;DHT22;28293;50.930;3.464;2024-01-16T07:00:43;-3276.40;85.30
42683;DHT22;28293;50.930;3.464;2024-01-16T07:03:10;-3276.30;85.20
42683;DHT22;28293;50.930;3.464;2024-01-16T07:05:36;-3276.30;85.20
42683;DHT22;28293;50.930;3.464;2024-01-16T07:08:01;-3276.30;85.30
42683;DHT22;28293;50.930;3.464;2024-01-16T07:10:27;-3276.30;85.30
42683;DHT22;28293;50.930;3.464;2024-01-16T07:12:53;-3276.30;85.40
42683;DHT22;28293;50.930;3.464;2024-01-16T07:15:18;-3276.30;85.40
42683;DHT22;28293;50.930;3.464;2024-01-16T07:17:44;-3276.30;85.60
42683;DHT22;28293;50.930;3.464;2024-01-16T07:20:10;-3276.30;85.50
42683;DHT22;28293;50.930;3.464;2024-01-16T07:22:39;-3276.40;85.40
42683;DHT22;28293;50.930;3.464;2024-01-16T07:25:06;-3276.40;85.40
42683;DHT22;28293;50.930;3.464;2024-01-16T07:27:32;-3276.40;85.50
42683;DHT22;28293;50.930;3.464;2024-01-16T07:29:57;-3276.40;85.60
42683;DHT22;28293;50.930;3.464;2024-01-16T07:32:23;-3276.40;85.60
42683;DHT22;28293;50.930;3.464;2024-01-16T07:34:48;-3276.40;85.60
42683;DHT22;28293;50.930;3.464;2024-01-16T07:37:14;-3276.40;85.60
42683;DHT22;28293;50.930;3.464;2024-01-16T07:39:41;-3276.40;85.70
42683;DHT22;28293;50.930;3.464;2024-01-16T07:42:07;-3276.40;85.70
42683;DHT22;28293;50.930;3.464;2024-01-16T07:44:33;-3276.50;85.70
42683;DHT22;28293;50.930;3.464;2024-01-16T07:46:59;-3276.50;85.60
42683;DHT22;28293;50.930;3.464;2024-01-16T07:49:25;-3276.50;85.70
42683;DHT22;28293;50.930;3.464;2024-01-16T07:51:51;-3276.40;85.60
42683;DHT22;28293;50.930;3.464;2024-01-16T07:54:17;-3276.50;85.70
42683;DHT22;28293;50.930;3.464;2024-01-16T07:56:43;-3276.50;85.60
42683;DHT22;28293;50.930;3.464;2024-01-16T07:59:08;-3276.50;85.60
42683;DHT22;28293;50.930;3.464;2024-01-16T08:01:34;-3276.50;85.50
42683;DHT22;28293;50.930;3.464;2024-01-16T08:04:00;-3276.60;85.50
42683;DHT22;28293;50.930;3.464;2024-01-16T08:06:26;-3276.60;85.50
42683;DHT22;28293;50.930;3.464;2024-01-16T08:08:52;-3276.70;85.40
42683;DHT22;28293;50.930;3.464;2024-01-16T08:11:18;-3276.70;85.30
42683;DHT22;28293;50.930;3.464;2024-01-16T08:13:44;0.00;85.30
42683;DHT22;28293;50.930;3.464;2024-01-16T08:16:10;0.00;85.00
42683;DHT22;28293;50.930;3.464;2024-01-16T08:18:36;0.00;85.00
42683;DHT22;28293;50.930;3.464;2024-01-16T08:21:02;0.00;84.90
42683;DHT22;28293;50.930;3.464;2024-01-16T08:23:28;0.10;85.00
42683;DHT22;28293;50.930;3.464;2024-01-16T08:25:53;0.10;85.00
42683;DHT22;28293;50.930;3.464;2024-01-16T08:28:19;0.10;84.80
42683;DHT22;28293;50.930;3.464;2024-01-16T08:30:45;0.10;84.70
42683;DHT22;28293;50.930;3.464;2024-01-16T08:33:12;0.20;84.60
42683;DHT22;28293;50.930;3.464;2024-01-16T08:35:38;0.20;84.30
42683;DHT22;28293;50.930;3.464;2024-01-16T08:38:04;0.20;84.20
42683;DHT22;28293;50.930;3.464;2024-01-16T08:40:30;0.20;84.10
42683;DHT22;28293;50.930;3.464;2024-01-16T08:42:56;0.30;84.10
42683;DHT22;28293;50.930;3.464;2024-01-16T08:45:22;0.40;84.20
42683;DHT22;28293;50.930;3.464;2024-01-16T08:47:48;0.40;84.10
42683;DHT22;28293;50.930;3.464;2024-01-16T08:50:15;0.40;84.10
42683;DHT22;28293;50.930;3.464;2024-01-16T08:52:41;0.50;84.10
42683;DHT22;28293;50.930;3.464;2024-01-16T08:55:08;0.60;84.00
42683;DHT22;28293;50.930;3.464;2024-01-16T08:57:34;0.70;83.80
42683;DHT22;28293;50.930;3.464;2024-01-16T09:00:00;0.80;83.40
42683;DHT22;28293;50.930;3.464;2024-01-16T09:02:26;0.90;83.40
42683;DHT22;28293;50.930;3.464;2024-01-16T09:04:55;0.90;83.00
42683;DHT22;28293;50.930;3.464;2024-01-16T09:07:20;1.00;82.90
42683;DHT22;28293;50.930;3.464;2024-01-16T09:09:46;1.00;82.80
42683;DHT22;28293;50.930;3.464;2024-01-16T09:12:11;1.10;82.40
42683;DHT22;28293;50.930;3.464;2024-01-16T09:14:38;1.10;82.40
42683;DHT22;28293;50.930;3.464;2024-01-16T09:17:03;1.10;82.20
42683;DHT22;28293;50.930;3.464;2024-01-16T09:19:29;1.10;81.90
42683;DHT22;28293;50.930;3.464;2024-01-16T09:21:56;1.10;81.80
42683;DHT22;28293;50.930;3.464;2024-01-16T09:24:21;1.10;82.10
42683;DHT22;28293;50.930;3.464;2024-01-16T09:26:47;1.10;82.10
42683;DHT22;28293;50.930;3.464;2024-01-16T09:29:13;1.10;82.10
42683;DHT22;28293;50.930;3.464;2024-01-16T09:31:40;1.10;82.00
42683;DHT22;28293;50.930;3.464;2024-01-16T09:34:06;1.30;82.30
42683;DHT22;28293;50.930;3.464;2024-01-16T09:36:32;1.60;81.80
42683;DHT22;28293;50.930;3.464;2024-01-16T09:39:01;1.80;81.50
42683;DHT22;28293;50.930;3.464;2024-01-16T09:41:27;2.10;80.50
42683;DHT22;28293;50.930;3.464;2024-01-16T09:43:54;2.30;79.70
42683;DHT22;28293;50.930;3.464;2024-01-16T09:46:22;2.40;78.80
42683;DHT22;28293;50.930;3.464;2024-01-16T09:48:51;2.50;78.50
42683;DHT22;28293;50.930;3.464;2024-01-16T09:51:18;2.60;78.10
42683;DHT22;28293;50.930;3.464;2024-01-16T09:53:44;2.80;77.60
42683;DHT22;28293;50.930;3.464;2024-01-16T09:56:15;2.90;77.30
42683;DHT22;28293;50.930;3.464;2024-01-16T09:58:43;3.10;77.10
42683;DHT22;28293;50.930;3.464;2024-01-16T10:01:11;3.10;76.10
42683;DHT22;28293;50.930;3.464;2024-01-16T10:03:38;3.10;76.10
42683;DHT22;28293;50.930;3.464;2024-01-16T10:06:05;3.20;75.90
42683;DHT22;28293;50.930;3.464;2024-01-16T10:08:32;3.20;75.90
42683;DHT22;28293;50.930;3.464;2024-01-16T10:10:58;3.20;75.60
42683;DHT22;28293;50.930;3.464;2024-01-16T10:13:24;3.30;74.80
42683;DHT22;28293;50.930;3.464;2024-01-16T10:15:50;3.40;74.80
42683;DHT22;28293;50.930;3.464;2024-01-16T10:18:25;3.20;74.40
42683;DHT22;28293;50.930;3.464;2024-01-16T10:20:51;3.30;74.30
42683;DHT22;28293;50.930;3.464;2024-01-16T10:23:28;3.30;74.40
42683;DHT22;28293;50.930;3.464;2024-01-16T10:28:33;3.60;74.30
42683;DHT22;28293;50.930;3.464;2024-01-16T10:31:07;3.60;73.90
42683;DHT22;28293;50.930;3.464;2024-01-16T10:33:33;3.60;73.70
42683;DHT22;28293;50.930;3.464;2024-01-16T10:36:09;3.70;74.70
42683;DHT22;28293;50.930;3.464;2024-01-16T10:38:39;3.80;75.10
42683;DHT22;28293;50.930;3.464;2024-01-16T10:43:34;3.70;75.00
42683;DHT22;28293;50.930;3.464;2024-01-16T10:46:10;3.70;75.30
42683;DHT22;28293;50.930;3.464;2024-01-16T10:48:38;3.80;75.10
42683;DHT22;28293;50.930;3.464;2024-01-16T10:51:06;3.90;74.60
42683;DHT22;28293;50.930;3.464;2024-01-16T10:53:33;3.90;74.20
42683;DHT22;28293;50.930;3.464;2024-01-16T10:56:01;3.90;73.60
42683;DHT22;28293;50.930;3.464;2024-01-16T10:58:29;3.80;73.30
42683;DHT22;28293;50.930;3.464;2024-01-16T11:01:01;3.80;72.90
42683;DHT22;28293;50.930;3.464;2024-01-16T11:03:48;3.90;73.40
42683;DHT22;28293;50.930;3.464;2024-01-16T11:06:16;4.10;72.90
42683;DHT22;28293;50.930;3.464;2024-01-16T11:08:42;4.10;73.50
42683;DHT22;28293;50.930;3.464;2024-01-16T11:11:10;4.20;73.00
42683;DHT22;28293;50.930;3.464;2024-01-16T11:13:38;4.20;72.90
42683;DHT22;28293;50.930;3.464;2024-01-16T11:16:04;4.20;73.10
42683;DHT22;28293;50.930;3.464;2024-01-16T11:18:31;4.20;72.60
42683;DHT22;28293;50.930;3.464;2024-01-16T11:21:05;4.20;72.80
42683;DHT22;28293;50.930;3.464;2024-01-16T11:23:31;4.40;72.90
42683;DHT22;28293;50.930;3.464;2024-01-16T11:25:57;4.50;72.70
42683;DHT22;28293;50.930;3.464;2024-01-16T11:28:28;4.60;71.80
42683;DHT22;28293;50.930;3.464;2024-01-16T11:30:56;4.50;71.40
42683;DHT22;28293;50.930;3.464;2024-01-16T11:35:57;4.50;70.20
42683;DHT22;28293;50.930;3.464;2024-01-16T11:38:25;4.60;69.90
42683;DHT22;28293;50.930;3.464;2024-01-16T11:40:58;4.50;69.50
42683;DHT22;28293;50.930;3.464;2024-01-16T11:46:08;4.60;68.90
42683;DHT22;28293;50.930;3.464;2024-01-16T11:48:34;4.60;67.90
42683;DHT22;28293;50.930;3.464;2024-01-16T11:51:00;4.60;66.70
42683;DHT22;28293;50.930;3.464;2024-01-16T11:53:46;4.50;66.30
42683;DHT22;28293;50.930;3.464;2024-01-16T11:56:41;4.40;67.20
42683;DHT22;28293;50.930;3.464;2024-01-16T11:59:40;4.60;66.70
42683;DHT22;28293;50.930;3.464;2024-01-16T12:02:20;4.70;66.30
42683;DHT22;28293;50.930;3.464;2024-01-16T12:04:53;4.70;66.20
42683;DHT22;28293;50.930;3.464;2024-01-16T12:07:24;4.50;66.20
42683;DHT22;28293;50.930;3.464;2024-01-16T12:09:49;4.40;66.60
42683;DHT22;28293;50.930;3.464;2024-01-16T12:12:15;4.50;67.10
42683;DHT22;28293;50.930;3.464;2024-01-16T12:14:51;4.50;66.40
42683;DHT22;28293;50.930;3.464;2024-01-16T12:17:17;4.40;66.20
42683;DHT22;28293;50.930;3.464;2024-01-16T12:19:45;4.60;66.10
42683;DHT22;28293;50.930;3.464;2024-01-16T12:22:14;4.50;65.90
42683;DHT22;28293;50.930;3.464;2024-01-16T12:24:41;4.40;66.00
42683;DHT22;28293;50.930;3.464;2024-01-16T12:27:08;4.50;65.90
42683;DHT22;28293;50.930;3.464;2024-01-16T12:29:34;4.20;66.20
42683;DHT22;28293;50.930;3.464;2024-01-16T12:32:12;4.10;66.80
42683;DHT22;28293;50.930;3.464;2024-01-16T12:34:49;4.20;66.60
42683;DHT22;28293;50.930;3.464;2024-01-16T12:37:14;4.20;67.70
42683;DHT22;28293;50.930;3.464;2024-01-16T12:39:41;4.30;67.40
42683;DHT22;28293;50.930;3.464;2024-01-16T12:42:08;4.40;67.40
42683;DHT22;28293;50.930;3.464;2024-01-16T12:44:36;4.50;67.00
42683;DHT22;28293;50.930;3.464;2024-01-16T12:47:02;4.60;66.60
42683;DHT22;28293;50.930;3.464;2024-01-16T12:49:28;4.60;66.20
42683;DHT22;28293;50.930;3.464;2024-01-16T12:52:18;4.60;66.50
42683;DHT22;28293;50.930;3.464;2024-01-16T12:54:46;4.70;67.10
42683;DHT22;28293;50.930;3.464;2024-01-16T12:57:19;4.70;67.10
42683;DHT22;28293;50.930;3.464;2024-01-16T12:59:46;4.70;65.40
42683;DHT22;28293;50.930;3.464;2024-01-16T13:02:20;4.70;65.90
42683;DHT22;28293;50.930;3.464;2024-01-16T13:04:48;4.70;66.00
42683;DHT22;28293;50.930;3.464;2024-01-16T13:07:16;4.60;66.00
42683;DHT22;28293;50.930;3.464;2024-01-16T13:09:44;4.60;66.10
42683;DHT22;28293;50.930;3.464;2024-01-16T13:12:19;4.60;66.10
42683;DHT22;28293;50.930;3.464;2024-01-16T13:14:46;4.70;66.20
42683;DHT22;28293;50.930;3.464;2024-01-16T13:17:12;4.60;66.20
42683;DHT22;28293;50.930;3.464;2024-01-16T13:19:37;4.60;66.50
42683;DHT22;28293;50.930;3.464;2024-01-16T13:22:05;4.60;66.10
42683;DHT22;28293;50.930;3.464;2024-01-16T13:24:32;4.60;65.80
42683;DHT22;28293;50.930;3.464;2024-01-16T13:26:58;4.60;65.50
42683;DHT22;28293;50.930;3.464;2024-01-16T13:29:24;4.50;65.70
42683;DHT22;28293;50.930;3.464;2024-01-16T13:31:49;4.40;66.10
42683;DHT22;28293;50.930;3.464;2024-01-16T13:34:20;4.50;66.30
42683;DHT22;28293;50.930;3.464;2024-01-16T13:36:48;4.60;66.20
42683;DHT22;28293;50.930;3.464;2024-01-16T13:39:14;4.60;66.40
42683;DHT22;28293;50.930;3.464;2024-01-16T13:41:40;4.50;66.10
42683;DHT22;28293;50.930;3.464;2024-01-16T13:44:05;4.50;65.70
42683;DHT22;28293;50.930;3.464;2024-01-16T13:46:31;4.50;66.40
42683;DHT22;28293;50.930;3.464;2024-01-16T13:48:57;4.30;66.30
42683;DHT22;28293;50.930;3.464;2024-01-16T13:51:23;4.20;66.60
42683;DHT22;28293;50.930;3.464;2024-01-16T13:53:49;4.20;66.50
42683;DHT22;28293;50.930;3.464;2024-01-16T13:56:15;4.30;66.80
42683;DHT22;28293;50.930;3.464;2024-01-16T13:58:40;4.40;66.80
42683;DHT22;28293;50.930;3.464;2024-01-16T14:01:09;4.40;66.50
42683;DHT22;28293;50.930;3.464;2024-01-16T14:03:35;4.40;66.70
42683;DHT22;28293;50.930;3.464;2024-01-16T14:06:01;4.40;65.50
42683;DHT22;28293;50.930;3.464;2024-01-16T14:08:27;4.10;65.40
42683;DHT22;28293;50.930;3.464;2024-01-16T14:10:53;4.20;65.90
42683;DHT22;28293;50.930;3.464;2024-01-16T14:13:18;4.20;65.50
42683;DHT22;28293;50.930;3.464;2024-01-16T14:15:44;4.10;65.90
42683;DHT22;28293;50.930;3.464;2024-01-16T14:18:10;4.10;65.70
42683;DHT22;28293;50.930;3.464;2024-01-16T14:20:36;4.10;66.10
42683;DHT22;28293;50.930;3.464;2024-01-16T14:23:02;4.10;65.30
42683;DHT22;28293;50.930;3.464;2024-01-16T14:25:29;4.10;65.40
42683;DHT22;28293;50.930;3.464;2024-01-16T14:27:59;4.10;65.50
42683;DHT22;28293;50.930;3.464;2024-01-16T14:30:26;4.10;65.30
42683;DHT22;28293;50.930;3.464;2024-01-16T14:32:52;4.10;64.40
42683;DHT22;28293;50.930;3.464;2024-01-16T14:35:18;4.10;64.80
42683;DHT22;28293;50.930;3.464;2024-01-16T14:37:45;4.10;64.60
42683;DHT22;28293;50.930;3.464;2024-01-16T14:40:11;4.10;64.50
42683;DHT22;28293;50.930;3.464;2024-01-16T14:42:47;4.00;64.50
42683;DHT22;28293;50.930;3.464;2024-01-16T14:45:42;4.00;64.20
42683;DHT22;28293;50.930;3.464;2024-01-16T14:48:08;4.00;64.00
42683;DHT22;28293;50.930;3.464;2024-01-16T14:50:36;4.00;63.80
42683;DHT22;28293;50.930;3.464;2024-01-16T14:53:01;4.00;64.20
42683;DHT22;28293;50.930;3.464;2024-01-16T14:55:28;3.90;64.10
42683;DHT22;28293;50.930;3.464;2024-01-16T14:57:54;3.90;63.60
42683;DHT22;28293;50.930;3.464;2024-01-16T15:00:25;3.90;63.70
42683;DHT22;28293;50.930;3.464;2024-01-16T15:02:55;3.80;63.30
42683;DHT22;28293;50.930;3.464;2024-01-16T15:05:21;3.70;62.70
42683;DHT22;28293;50.930;3.464;2024-01-16T15:07:48;3.60;61.80
42683;DHT22;28293;50.930;3.464;2024-01-16T15:10:13;3.50;61.40
42683;DHT22;28293;50.930;3.464;2024-01-16T15:12:46;3.40;60.40
42683;DHT22;28293;50.930;3.464;2024-01-16T15:15:13;3.40;60.50
42683;DHT22;28293;50.930;3.464;2024-01-16T15:17:40;3.40;60.10
42683;DHT22;28293;50.930;3.464;2024-01-16T15:20:07;3.40;59.00
42683;DHT22;28293;50.930;3.464;2024-01-16T15:22:43;3.30;60.10
42683;DHT22;28293;50.930;3.464;2024-01-16T15:25:15;3.20;60.50
42683;DHT22;28293;50.930;3.464;2024-01-16T15:27:44;3.20;61.20
42683;DHT22;28293;50.930;3.464;2024-01-16T15:30:10;3.10;61.50
42683;DHT22;28293;50.930;3.464;2024-01-16T15:32:37;3.10;62.00